Time;durP1;ratioP1;P1;durP2;ratioP2;P2;SDS_P1;SDS_P2;PMS_P1;PMS_P2;Temp;Humidity;BMP_temperature;BMP_pressure;BME280_temperature;BME280_humidity;BME280_pressure;Samples;Min_cycle;Max_cycle;Signal;HPM_P1;HPM_P2
2023/08/20 00:00:25;;;;;;;10.27;3.38;;;17.50;99.90;;;;;;5065639;28;20024;-80
2023/08/20 00:02:58;;;;;;;7.53;2.28;;;17.50;99.90;;;;;;5067011;28;20032;-80
2023/08/20 00:05:24;;;;;;;7.43;2.63;;;17.50;99.90;;;;;;5051673;28;20115;-80
2023/08/20 00:07:50;;;;;;;9.95;3.25;;;17.40;99.90;;;;;;5067593;28;20064;-80
2023/08/20 00:10:16;;;;;;;11.43;2.92;;;17.50;99.90;;;;;;5031556;28;20091;-80
2023/08/20 00:12:42;;;;;;;12.00;3.20;;;17.40;99.90;;;;;;5042153;28;20504;-80
2023/08/20 00:15:08;;;;;;;6.50;2.53;;;17.40;99.90;;;;;;5044545;28;20064;-80
2023/08/20 00:17:39;;;;;;;10.57;3.45;;;17.40;99.90;;;;;;5045360;28;20506;-80
2023/08/20 00:20:10;;;;;;;11.98;3.08;;;17.40;99.90;;;;;;5050661;28;20068;-80
2023/08/20 00:22:36;;;;;;;10.77;3.47;;;17.40;99.90;;;;;;5043551;28;20033;-80
2023/08/20 00:25:04;;;;;;;8.40;2.83;;;17.30;99.90;;;;;;5049077;28;20045;-80
2023/08/20 00:27:29;;;;;;;11.27;3.53;;;17.30;99.90;;;;;;5047119;28;20049;-80
2023/08/20 00:29:55;;;;;;;9.43;3.35;;;17.30;99.90;;;;;;5057250;28;20369;-80
2023/08/20 00:32:21;;;;;;;15.70;4.22;;;17.30;99.90;;;;;;5048598;28;20052;-80
2023/08/20 00:34:46;;;;;;;12.80;4.63;;;17.20;99.90;;;;;;5037663;28;20501;-80
2023/08/20 00:37:12;;;;;;;7.18;3.40;;;17.20;99.90;;;;;;5045918;28;20399;-80
2023/08/20 00:39:38;;;;;;;10.73;4.10;;;17.20;99.90;;;;;;5067872;28;20044;-79
2023/08/20 00:42:04;;;;;;;9.23;2.85;;;17.10;99.90;;;;;;5043511;28;20049;-79
2023/08/20 00:44:30;;;;;;;11.27;3.70;;;17.10;99.90;;;;;;5068467;28;20131;-79
2023/08/20 00:46:56;;;;;;;9.10;3.22;;;17.10;99.90;;;;;;5050118;28;20040;-80
2023/08/20 00:49:22;;;;;;;7.70;2.90;;;17.10;99.90;;;;;;5044323;28;20388;-79
2023/08/20 00:51:50;;;;;;;10.20;3.20;;;17.10;99.90;;;;;;5044687;28;20107;-80
2023/08/20 00:54:16;;;;;;;7.60;3.22;;;17.10;99.90;;;;;;5049592;28;20071;-80
2023/08/20 00:56:42;;;;;;;9.05;2.95;;;17.10;99.90;;;;;;5065451;28;20042;-79
2023/08/20 00:59:08;;;;;;;8.30;2.85;;;17.10;99.90;;;;;;5063198;28;20402;-80
2023/08/20 01:01:34;;;;;;;6.88;2.97;;;17.10;99.90;;;;;;5049458;28;20083;-79
2023/08/20 01:03:59;;;;;;;7.38;3.15;;;17.00;99.90;;;;;;5043769;28;20046;-80
2023/08/20 01:06:40;;;;;;;8.55;3.30;;;17.00;99.90;;;;;;5067421;28;20037;-79
2023/08/20 01:09:13;;;;;;;10.10;3.78;;;17.00;99.90;;;;;;5047479;28;20102;-80
2023/08/20 01:11:46;;;;;;;9.70;3.88;;;17.00;99.90;;;;;;5049772;28;20036;-79
2023/08/20 01:14:16;;;;;;;8.55;3.03;;;17.00;99.90;;;;;;5050267;28;20525;-79
2023/08/20 01:16:42;;;;;;;12.50;4.10;;;17.00;99.90;;;;;;5062081;28;20507;-79
2023/08/20 01:19:14;;;;;;;11.13;3.90;;;17.00;99.90;;;;;;5054053;28;20127;-80
2023/08/20 01:21:49;;;;;;;7.68;3.83;;;16.90;99.90;;;;;;5048601;28;20052;-79
2023/08/20 01:24:39;;;;;;;12.23;4.97;;;16.90;99.90;;;;;;5042440;28;20108;-79
2023/08/20 01:27:19;;;;;;;12.50;4.25;;;16.90;99.90;;;;;;5064949;28;20084;-80
2023/08/20 01:29:45;;;;;;;12.10;4.35;;;16.80;99.90;;;;;;5047326;28;20044;-79
2023/08/20 01:32:12;;;;;;;12.10;4.00;;;16.80;99.90;;;;;;5045451;28;20190;-79
2023/08/20 01:34:38;;;;;;;11.52;4.53;;;16.80;99.90;;;;;;5047336;28;20044;-80
2023/08/20 01:37:04;;;;;;;10.57;5.75;;;16.80;99.90;;;;;;5047416;28;20115;-79
2023/08/20 01:39:29;;;;;;;12.18;5.43;;;16.70;99.90;;;;;;5044441;28;20120;-79
2023/08/20 01:41:55;;;;;;;10.48;5.28;;;16.70;99.90;;;;;;5066218;28;20036;-79
2023/08/20 01:44:21;;;;;;;10.77;5.28;;;16.70;99.90;;;;;;5043034;28;20384;-79
2023/08/20 01:46:46;;;;;;;9.18;4.40;;;16.70;99.90;;;;;;5043833;28;20515;-79
2023/08/20 01:49:12;;;;;;;15.70;5.70;;;16.70;99.90;;;;;;5045291;28;20494;-79
2023/08/20 01:51:38;;;;;;;15.77;6.47;;;16.70;99.90;;;;;;5046677;28;20040;-80
2023/08/20 01:54:04;;;;;;;9.27;4.05;;;16.70;99.90;;;;;;5047613;28;20376;-80
2023/08/20 01:56:30;;;;;;;10.52;4.57;;;16.60;99.90;;;;;;5047110;28;20121;-79
2023/08/20 01:58:56;;;;;;;9.65;3.58;;;16.70;99.90;;;;;;5064754;28;20392;-79
2023/08/20 02:01:21;;;;;;;9.90;4.65;;;16.70;99.90;;;;;;5061791;28;20339;-79
2023/08/20 02:03:47;;;;;;;12.43;5.20;;;16.70;99.90;;;;;;5058639;28;20051;-80
2023/08/20 02:06:12;;;;;;;16.13;6.70;;;16.70;99.90;;;;;;5048175;28;20062;-79
2023/08/20 02:08:38;;;;;;;20.80;7.93;;;16.70;99.90;;;;;;5055538;28;20120;-80
2023/08/20 02:11:04;;;;;;;12.65;6.80;;;16.70;99.90;;;;;;5051948;28;20044;-80
2023/08/20 02:13:33;;;;;;;17.73;6.88;;;16.70;99.90;;;;;;5046341;28;20048;-79
2023/08/20 02:16:03;;;;;;;15.00;7.63;;;16.60;99.90;;;;;;5068334;28;20029;-80
2023/08/20 02:18:30;;;;;;;18.35;7.85;;;16.70;99.90;;;;;;5043968;28;20036;-79
2023/08/20 02:20:56;;;;;;;12.75;5.82;;;16.60;99.90;;;;;;5071161;28;20495;-79
2023/08/20 02:23:22;;;;;;;12.82;5.85;;;16.60;99.90;;;;;;5045964;28;20147;-79
2023/08/20 02:25:48;;;;;;;12.55;7.60;;;16.60;99.90;;;;;;5048313;28;20456;-79
2023/08/20 02:28:14;;;;;;;12.05;7.47;;;16.60;99.90;;;;;;5044785;28;20048;-79
2023/08/20 02:30:44;;;;;;;13.30;7.15;;;16.60;99.90;;;;;;5044734;28;20039;-79
2023/08/20 02:33:10;;;;;;;17.60;7.50;;;16.60;99.90;;;;;;5047104;28;20124;-79
2023/08/20 02:35:36;;;;;;;15.55;7.78;;;16.60;99.90;;;;;;5049079;28;20044;-80
2023/08/20 02:38:02;;;;;;;11.65;4.75;;;16.60;99.90;;;;;;5049527;28;20373;-79
2023/08/20 02:40:28;;;;;;;13.27;6.50;;;16.50;99.90;;;;;;5063287;28;20051;-79
2023/08/20 02:42:53;;;;;;;11.52;6.07;;;16.60;99.90;;;;;;5048151;28;20033;-79
2023/08/20 02:45:19;;;;;;;12.60;6.45;;;16.60;99.90;;;;;;5065635;28;20071;-79
2023/08/20 02:47:45;;;;;;;9.80;5.38;;;16.60;99.90;;;;;;5069607;28;20032;-79
2023/08/20 02:50:10;;;;;;;11.00;7.07;;;16.60;99.90;;;;;;5070075;28;20094;-80
2023/08/20 02:52:36;;;;;;;14.05;9.00;;;16.50;99.90;;;;;;5069783;28;20045;-80
2023/08/20 02:55:04;;;;;;;14.80;7.45;;;16.40;99.90;;;;;;5048858;28;20127;-79
2023/08/20 02:57:30;;;;;;;17.58;8.25;;;16.50;99.90;;;;;;5045240;28;20044;-79
2023/08/20 02:59:56;;;;;;;15.20;8.50;;;16.40;99.90;;;;;;5028451;28;20047;-79
2023/08/20 03:02:22;;;;;;;12.70;8.00;;;16.40;99.90;;;;;;5049716;28;20049;-79
2023/08/20 03:04:47;;;;;;;13.40;8.05;;;16.40;99.90;;;;;;5065988;28;20123;-80
2023/08/20 03:07:13;;;;;;;16.00;9.05;;;16.40;99.90;;;;;;5068359;28;20043;-79
2023/08/20 03:09:38;;;;;;;11.15;7.97;;;16.30;99.90;;;;;;5069372;28;20028;-79
2023/08/20 03:12:05;;;;;;;15.60;8.00;;;16.30;99.90;;;;;;5044406;28;20036;-79
2023/08/20 03:14:30;;;;;;;16.67;7.95;;;16.30;99.90;;;;;;5063389;28;20047;-79
2023/08/20 03:16:56;;;;;;;12.48;6.95;;;16.30;99.90;;;;;;5049844;28;20065;-79
2023/08/20 03:19:21;;;;;;;11.45;8.80;;;16.30;99.90;;;;;;5068108;28;20398;-79
2023/08/20 03:21:47;;;;;;;15.00;7.25;;;16.30;99.90;;;;;;5044145;28;20475;-79
2023/08/20 03:24:13;;;;;;;17.33;9.25;;;16.30;99.90;;;;;;5066132;28;20037;-79
2023/08/20 03:26:38;;;;;;;16.58;9.50;;;16.30;99.90;;;;;;5046667;28;20045;-79
2023/08/20 03:29:04;;;;;;;13.88;8.65;;;16.20;99.90;;;;;;5063808;28;20488;-79
2023/08/20 03:31:30;;;;;;;19.10;8.30;;;16.20;99.90;;;;;;5046931;28;20411;-79
2023/08/20 03:33:55;;;;;;;14.55;7.95;;;16.20;99.90;;;;;;5063996;28;20468;-79
2023/08/20 03:36:21;;;;;;;14.57;8.45;;;16.10;99.90;;;;;;5047757;28;20135;-79
2023/08/20 03:38:47;;;;;;;9.18;5.45;;;16.10;99.90;;;;;;5046454;28;20476;-79
2023/08/20 03:41:12;;;;;;;13.35;7.55;;;16.10;99.90;;;;;;5067130;28;20037;-79
2023/08/20 03:43:38;;;;;;;14.13;8.88;;;16.10;99.90;;;;;;5051504;28;20033;-79
2023/08/20 03:46:04;;;;;;;14.75;7.97;;;16.10;99.90;;;;;;5067112;28;20032;-79
2023/08/20 03:48:29;;;;;;;15.27;7.72;;;16.10;99.90;;;;;;5049885;28;20123;-79
2023/08/20 03:50:56;;;;;;;15.15;7.22;;;16.10;99.90;;;;;;5045864;28;20523;-79
2023/08/20 03:53:21;;;;;;;14.68;8.43;;;16.10;99.90;;;;;;5065525;28;20032;-79
2023/08/20 03:55:48;;;;;;;12.27;8.18;;;16.10;99.90;;;;;;5040810;28;20445;-79
2023/08/20 03:58:14;;;;;;;15.00;7.63;;;16.10;99.90;;;;;;5065070;28;20048;-79
2023/08/20 04:00:40;;;;;;;12.45;6.85;;;16.10;99.90;;;;;;5048005;28;20028;-79
2023/08/20 04:03:05;;;;;;;13.25;7.63;;;16.10;99.90;;;;;;5030473;28;20036;-79
2023/08/20 04:05:36;;;;;;;12.27;7.50;;;16.10;99.90;;;;;;5051155;28;20048;-79
2023/08/20 04:08:03;;;;;;;18.55;8.95;;;16.10;99.90;;;;;;5045219;28;20064;-79
2023/08/20 04:10:28;;;;;;;15.30;8.18;;;16.00;99.90;;;;;;5045052;28;20131;-79
2023/08/20 04:12:54;;;;;;;15.10;7.57;;;16.00;99.90;;;;;;5045441;28;20123;-79
2023/08/20 04:15:20;;;;;;;17.00;7.70;;;16.00;99.90;;;;;;5050675;28;20033;-79
2023/08/20 04:17:46;;;;;;;12.75;7.05;;;16.00;99.90;;;;;;5050704;28;20245;-79
2023/08/20 04:20:11;;;;;;;13.90;9.15;;;15.90;99.90;;;;;;5027266;28;20589;-79
2023/08/20 04:22:37;;;;;;;15.60;8.13;;;15.90;99.90;;;;;;5040359;28;20400;-79
2023/08/20 04:25:04;;;;;;;16.95;7.85;;;15.80;99.90;;;;;;5067098;28;20330;-79
2023/08/20 04:27:30;;;;;;;13.75;6.60;;;15.80;99.90;;;;;;5061369;28;20028;-79
2023/08/20 04:29:56;;;;;;;13.10;6.57;;;15.70;99.90;;;;;;5048836;28;20442;-79
2023/08/20 04:32:22;;;;;;;13.27;6.90;;;15.70;99.90;;;;;;5062384;28;20043;-79
2023/08/20 04:34:49;;;;;;;11.57;7.85;;;15.80;99.90;;;;;;5067355;28;20128;-79
2023/08/20 04:37:15;;;;;;;9.80;5.35;;;15.80;99.90;;;;;;5058789;28;20045;-79
2023/08/20 04:39:41;;;;;;;12.90;7.95;;;15.80;99.90;;;;;;5042408;28;20533;-79
2023/08/20 04:42:06;;;;;;;13.80;7.00;;;15.80;99.90;;;;;;5053746;28;20047;-79
2023/08/20 04:44:32;;;;;;;13.88;7.90;;;15.80;99.90;;;;;;5045233;28;20029;-79
2023/08/20 04:46:57;;;;;;;10.18;6.30;;;15.80;99.90;;;;;;5045998;28;20086;-79
2023/08/20 04:49:27;;;;;;;15.90;8.15;;;15.80;99.90;;;;;;5025254;28;20063;-79
2023/08/20 04:51:53;;;;;;;12.45;8.15;;;15.80;99.90;;;;;;5045571;28;20061;-79
2023/08/20 04:54:19;;;;;;;14.85;8.15;;;15.80;99.90;;;;;;5045136;28;20053;-79
2023/08/20 04:56:44;;;;;;;9.68;6.65;;;15.80;99.90;;;;;;5040217;28;20064;-79
2023/08/20 04:59:11;;;;;;;12.35;6.80;;;15.80;99.90;;;;;;5043116;28;20120;-79
2023/08/20 05:01:38;;;;;;;11.27;7.38;;;15.80;99.90;;;;;;5047985;28;20484;-79
2023/08/20 05:04:13;;;;;;;11.20;7.47;;;15.80;99.90;;;;;;5075431;27;20464;-79
2023/08/20 05:06:38;;;;;;;11.75;7.65;;;15.80;99.90;;;;;;5077037;28;20446;-78
2023/08/20 05:09:04;;;;;;;12.18;7.70;;;15.80;99.90;;;;;;5058284;28;20074;-78
2023/08/20 05:11:32;;;;;;;13.52;7.13;;;15.70;99.90;;;;;;5067363;28;20048;-81
2023/08/20 05:13:58;;;;;;;10.13;5.93;;;15.80;99.90;;;;;;5066463;28;20044;-81
2023/08/20 05:16:24;;;;;;;10.18;6.07;;;15.70;99.90;;;;;;5069357;28;20387;-81
2023/08/20 05:18:49;;;;;;;12.88;8.35;;;15.80;99.90;;;;;;5070390;28;20059;-81
2023/08/20 05:21:15;;;;;;;11.77;7.22;;;15.80;99.90;;;;;;5076230;28;20358;-81
2023/08/20 05:23:41;;;;;;;16.60;7.47;;;15.80;99.90;;;;;;5098756;28;20435;-81
2023/08/20 05:26:07;;;;;;;12.65;7.00;;;15.80;99.90;;;;;;5077488;28;20553;-81
2023/08/20 05:28:33;;;;;;;13.52;8.30;;;15.80;99.90;;;;;;5080508;28;20053;-81
2023/08/20 05:30:59;;;;;;;14.57;8.88;;;15.80;99.90;;;;;;5057945;28;20037;-81
2023/08/20 05:33:25;;;;;;;13.68;8.65;;;15.90;99.90;;;;;;5076301;28;20040;-78
2023/08/20 05:35:51;;;;;;;14.43;9.88;;;15.80;99.90;;;;;;5079093;28;20163;-79
2023/08/20 05:38:17;;;;;;;12.77;8.52;;;15.90;99.90;;;;;;5068415;28;20127;-78
2023/08/20 05:40:43;;;;;;;11.63;7.70;;;15.80;99.90;;;;;;5079374;28;20453;-78
2023/08/20 05:43:09;;;;;;;15.70;9.20;;;15.80;99.90;;;;;;5071144;28;20087;-78
2023/08/20 05:45:35;;;;;;;12.25;7.43;;;15.80;99.90;;;;;;5071217;28;20046;-79
2023/08/20 05:48:01;;;;;;;14.43;5.95;;;15.90;99.90;;;;;;5072744;28;20382;-79
2023/08/20 05:50:26;;;;;;;17.20;8.73;;;15.80;99.90;;;;;;5072610;28;20553;-79
2023/08/20 05:52:52;;;;;;;12.77;8.38;;;15.90;99.90;;;;;;5078713;28;20469;-79
2023/08/20 05:55:18;;;;;;;12.57;8.25;;;15.80;99.90;;;;;;5076822;28;20075;-79
2023/08/20 05:57:43;;;;;;;14.57;7.68;;;15.90;99.90;;;;;;5077451;28;20033;-78
2023/08/20 06:00:10;;;;;;;15.70;8.73;;;15.90;99.90;;;;;;5074261;28;20391;-79
2023/08/20 06:02:37;;;;;;;13.10;8.15;;;15.90;99.90;;;;;;5102083;28;20058;-78
2023/08/20 06:05:04;;;;;;;13.82;7.68;;;16.00;99.90;;;;;;5051239;28;20055;-79
2023/08/20 06:07:31;;;;;;;13.80;8.02;;;16.00;99.90;;;;;;5071214;28;20036;-78
2023/08/20 06:09:57;;;;;;;15.60;8.63;;;15.90;99.90;;;;;;5068923;28;20135;-78
2023/08/20 06:12:23;;;;;;;11.25;7.80;;;16.00;99.90;;;;;;5077055;28;20542;-78
2023/08/20 06:14:49;;;;;;;17.20;8.57;;;16.00;99.90;;;;;;5051226;28;20041;-78
2023/08/20 06:17:15;;;;;;;14.07;8.38;;;16.10;99.90;;;;;;5069913;28;20118;-79
2023/08/20 06:19:40;;;;;;;14.52;7.97;;;16.00;99.90;;;;;;5057636;28;20070;-80
2023/08/20 06:22:06;;;;;;;10.07;6.00;;;16.10;99.90;;;;;;5055328;28;20361;-80
2023/08/20 06:24:32;;;;;;;14.80;7.78;;;16.10;99.90;;;;;;5061607;28;20414;-79
2023/08/20 06:26:58;;;;;;;12.13;7.15;;;16.10;99.90;;;;;;5092332;28;20071;-79
2023/08/20 06:29:23;;;;;;;19.85;8.23;;;16.10;99.90;;;;;;5062277;28;20064;-80
2023/08/20 06:31:50;;;;;;;15.20;7.57;;;16.20;99.90;;;;;;5060138;28;20395;-79
2023/08/20 06:34:16;;;;;;;11.05;7.25;;;16.20;99.90;;;;;;5060630;28;20067;-81
2023/08/20 06:36:42;;;;;;;14.23;7.95;;;16.20;99.90;;;;;;5063710;28;20044;-80
2023/08/20 06:39:08;;;;;;;11.82;6.85;;;16.30;99.90;;;;;;5059663;28;20257;-81
2023/08/20 06:41:34;;;;;;;15.40;7.32;;;16.30;99.90;;;;;;5086560;28;20059;-81
2023/08/20 06:43:59;;;;;;;13.40;7.43;;;16.30;99.90;;;;;;5059320;28;20048;-81
2023/08/20 06:46:25;;;;;;;18.25;8.30;;;16.30;99.90;;;;;;5060705;28;20147;-81
2023/08/20 06:48:54;;;;;;;12.73;7.18;;;16.40;99.90;;;;;;5053676;28;20043;-81
2023/08/20 06:51:21;;;;;;;18.08;7.75;;;16.40;99.90;;;;;;5056709;28;20398;-81
2023/08/20 06:53:50;;;;;;;13.18;7.05;;;16.40;99.90;;;;;;5065109;28;20076;-81
2023/08/20 06:56:15;;;;;;;16.77;7.10;;;16.50;99.90;;;;;;5055480;28;20102;-80
2023/08/20 06:58:42;;;;;;;13.98;6.80;;;16.50;99.90;;;;;;5060885;28;20041;-81
2023/08/20 07:01:08;;;;;;;15.27;7.15;;;16.50;99.90;;;;;;5064905;28;20037;-80
2023/08/20 07:03:41;;;;;;;12.50;5.72;;;16.60;99.90;;;;;;5058392;28;20103;-80
2023/08/20 07:06:11;;;;;;;14.77;7.20;;;16.70;99.90;;;;;;5062272;28;20044;-81
2023/08/20 07:08:40;;;;;;;14.65;7.05;;;16.60;99.90;;;;;;5090330;28;20369;-81
2023/08/20 07:11:07;;;;;;;18.55;6.43;;;16.70;99.90;;;;;;5087257;28;20048;-82
2023/08/20 07:13:33;;;;;;;17.50;6.80;;;16.80;99.90;;;;;;5057523;28;20049;-81
2023/08/20 07:15:59;;;;;;;17.40;6.40;;;16.90;99.90;;;;;;5061584;28;20036;-81
2023/08/20 07:18:25;;;;;;;13.68;5.70;;;16.90;99.90;;;;;;5044839;28;20032;-80
2023/08/20 07:20:54;;;;;;;11.50;5.45;;;17.00;99.90;;;;;;5058629;28;20064;-81
2023/08/20 07:23:20;;;;;;;18.10;6.22;;;17.00;99.90;;;;;;5061300;28;20029;-80
2023/08/20 07:25:46;;;;;;;11.60;5.45;;;17.10;99.90;;;;;;5058565;28;20064;-79
2023/08/20 07:28:12;;;;;;;16.17;6.53;;;17.20;99.90;;;;;;5061682;28;20083;-81
2023/08/20 07:30:39;;;;;;;15.23;5.22;;;17.20;99.90;;;;;;5061898;28;20028;-81
2023/08/20 07:33:06;;;;;;;17.60;5.53;;;17.30;99.90;;;;;;5057976;28;20116;-81
2023/08/20 07:35:32;;;;;;;15.82;4.93;;;17.30;99.90;;;;;;5059880;28;20044;-81
2023/08/20 07:37:57;;;;;;;17.70;4.78;;;17.40;99.90;;;;;;5056764;28;20491;-81
2023/08/20 07:40:23;;;;;;;15.80;4.30;;;17.50;99.90;;;;;;5058571;28;20055;-81
2023/08/20 07:42:50;;;;;;;14.70;4.60;;;17.60;99.90;;;;;;5057184;28;20047;-81
2023/08/20 07:45:15;;;;;;;15.77;4.18;;;17.60;99.90;;;;;;5055999;28;20120;-81
2023/08/20 07:47:41;;;;;;;14.73;4.50;;;17.70;99.90;;;;;;5086494;28;20203;-82
2023/08/20 07:50:07;;;;;;;15.70;3.92;;;17.70;99.90;;;;;;5089400;28;20482;-81
2023/08/20 07:52:33;;;;;;;17.55;4.72;;;17.80;99.90;;;;;;5059650;28;20048;-81
2023/08/20 07:55:01;;;;;;;14.80;3.58;;;17.90;99.90;;;;;;5060677;28;20098;-82
2023/08/20 07:57:27;;;;;;;13.40;3.28;;;17.90;99.90;;;;;;5057140;28;20036;-81
2023/08/20 07:59:52;;;;;;;14.68;3.13;;;18.00;99.90;;;;;;5057272;28;20138;-81
2023/08/20 08:02:18;;;;;;;12.70;3.17;;;18.00;99.90;;;;;;5058863;28;20052;-81
2023/08/20 08:04:44;;;;;;;12.82;3.90;;;18.10;99.90;;;;;;5057984;28;20045;-81
2023/08/20 08:07:11;;;;;;;9.48;3.30;;;18.20;99.90;;;;;;5058208;28;20033;-82
2023/08/20 08:09:36;;;;;;;10.73;3.50;;;18.30;99.90;;;;;;5057429;28;20040;-82
2023/08/20 08:12:04;;;;;;;13.57;3.28;;;18.30;99.90;;;;;;5060522;28;20059;-82
2023/08/20 08:14:30;;;;;;;10.38;2.97;;;18.40;99.90;;;;;;5062933;28;20471;-82
2023/08/20 08:16:56;;;;;;;11.75;3.30;;;18.40;99.90;;;;;;5057214;28;20061;-82
2023/08/20 08:19:22;;;;;;;13.38;3.15;;;18.50;99.90;;;;;;5064086;28;20036;-81
2023/08/20 08:21:48;;;;;;;12.35;2.80;;;18.60;99.90;;;;;;5060062;28;20163;-81
2023/08/20 08:24:15;;;;;;;14.88;3.30;;;18.80;99.90;;;;;;5055283;28;20093;-82
2023/08/20 08:26:41;;;;;;;15.68;2.78;;;18.80;99.90;;;;;;5060643;28;20065;-82
2023/08/20 08:29:08;;;;;;;11.30;2.42;;;19.00;99.90;;;;;;5054757;28;20052;-82
2023/08/20 08:31:34;;;;;;;13.35;2.70;;;19.10;99.90;;;;;;5056141;28;20033;-82
2023/08/20 08:34:03;;;;;;;12.95;2.78;;;19.20;99.90;;;;;;5057134;28;20045;-82
2023/08/20 08:36:29;;;;;;;10.40;3.00;;;19.40;99.90;;;;;;5057098;28;20041;-82
2023/08/20 08:38:55;;;;;;;11.10;2.40;;;19.60;99.90;;;;;;5089592;28;20044;-82
2023/08/20 08:41:26;;;;;;;10.30;2.28;;;19.80;99.90;;;;;;5084690;28;20029;-82
2023/08/20 08:43:53;;;;;;;15.77;2.35;;;19.90;99.90;;;;;;5058496;28;20535;-82
2023/08/20 08:46:20;;;;;;;9.98;2.03;;;20.00;99.90;;;;;;5063270;28;20506;-82
2023/08/20 08:48:47;;;;;;;14.50;2.13;;;20.20;99.90;;;;;;5058403;28;20044;-82
2023/08/20 08:51:14;;;;;;;11.25;2.50;;;20.30;99.90;;;;;;5060411;28;20641;-82
2023/08/20 08:53:41;;;;;;;9.30;2.05;;;20.50;99.90;;;;;;5064888;28;20115;-82
2023/08/20 08:56:07;;;;;;;10.15;1.70;;;20.60;99.90;;;;;;5060524;28;20055;-82
2023/08/20 08:58:33;;;;;;;8.45;1.70;;;20.70;99.90;;;;;;5058539;28;20032;-82
2023/08/20 09:00:59;;;;;;;9.30;1.80;;;20.90;99.90;;;;;;5056821;28;20068;-83
2023/08/20 09:03:25;;;;;;;10.95;2.83;;;21.00;99.90;;;;;;5057752;28;20613;-81
2023/08/20 09:06:03;;;;;;;7.65;1.77;;;21.10;99.90;;;;;;5055547;28;20049;-84
2023/08/20 09:08:30;;;;;;;6.95;1.50;;;21.20;99.90;;;;;;5056284;28;20036;-85
2023/08/20 09:10:57;;;;;;;7.38;1.70;;;21.30;99.90;;;;;;5045225;28;20043;-84
2023/08/20 09:13:43;;;;;;;12.43;1.88;;;21.40;99.90;;;;;;5057979;28;20051;-84
2023/08/20 09:16:11;;;;;;;10.63;2.03;;;21.40;99.90;;;;;;5060668;28;20683;-85
2023/08/20 09:18:44;;;;;;;7.13;1.40;;;21.50;99.90;;;;;;5087643;28;20056;-83
2023/08/20 09:21:12;;;;;;;6.03;1.35;;;21.50;99.90;;;;;;5057326;28;20060;-84
2023/08/20 09:23:38;;;;;;;6.43;1.30;;;21.60;99.90;;;;;;5044966;28;20044;-84
2023/08/20 09:26:06;;;;;;;7.85;1.58;;;21.70;99.90;;;;;;5052947;28;20077;-84
2023/08/20 09:28:42;;;;;;;5.88;1.30;;;21.80;99.90;;;;;;5040446;28;20483;-84
2023/08/20 09:31:09;;;;;;;7.40;1.95;;;21.90;99.90;;;;;;5055312;28;20449;-84
2023/08/20 09:33:34;;;;;;;6.00;1.60;;;22.00;99.90;;;;;;5061207;28;20063;-83
2023/08/20 09:36:03;;;;;;;9.38;1.83;;;22.10;99.90;;;;;;5057547;28;20045;-83
2023/08/20 09:38:28;;;;;;;7.55;1.40;;;22.20;99.90;;;;;;5056300;28;20079;-84
2023/08/20 09:40:58;;;;;;;5.35;1.10;;;22.20;99.90;;;;;;5051135;28;20452;-83
2023/08/20 09:43:29;;;;;;;8.52;1.42;;;22.40;99.90;;;;;;5078810;28;20041;-84
2023/08/20 09:45:58;;;;;;;7.80;1.40;;;22.50;99.90;;;;;;5053664;28;20511;-83
2023/08/20 09:48:27;;;;;;;8.30;1.40;;;22.60;99.90;;;;;;5060898;28;20039;-83
2023/08/20 09:50:58;;;;;;;5.75;1.60;;;22.70;99.90;;;;;;5055573;28;20040;-83
2023/08/20 09:53:24;;;;;;;7.65;1.30;;;22.70;99.90;;;;;;5060350;28;20111;-83
2023/08/20 09:55:52;;;;;;;7.45;1.70;;;22.70;99.90;;;;;;5061257;28;20127;-83
2023/08/20 09:58:25;;;;;;;10.38;1.70;;;22.60;99.90;;;;;;5062133;28;20033;-84
2023/08/20 10:00:51;;;;;;;6.25;1.20;;;22.50;99.90;;;;;;5060270;28;20143;-83
2023/08/20 10:03:20;;;;;;;5.75;1.50;;;22.50;99.90;;;;;;5061623;28;20049;-83
2023/08/20 10:05:50;;;;;;;7.93;1.27;;;22.50;99.90;;;;;;5057631;28;20095;-84
2023/08/20 10:08:16;;;;;;;4.25;1.10;;;22.60;99.90;;;;;;5057932;28;20442;-84
2023/08/20 10:10:42;;;;;;;7.82;1.20;;;22.80;99.90;;;;;;5076419;28;20073;-84
2023/08/20 10:13:08;;;;;;;7.15;1.60;;;23.00;99.90;;;;;;5057008;28;20518;-83
2023/08/20 10:15:36;;;;;;;6.75;1.20;;;23.10;99.90;;;;;;5050146;28;20097;-84
2023/08/20 10:18:02;;;;;;;6.75;1.13;;;23.10;99.90;;;;;;5062590;28;20044;-84
2023/08/20 10:20:30;;;;;;;10.98;1.55;;;23.10;99.90;;;;;;5089640;28;20048;-84
2023/08/20 10:23:00;;;;;;;5.38;1.25;;;23.20;99.90;;;;;;5059806;28;20072;-84
2023/08/20 10:25:26;;;;;;;6.93;1.40;;;23.30;99.90;;;;;;5062521;28;20036;-84
2023/08/20 10:27:53;;;;;;;6.80;1.40;;;23.40;99.90;;;;;;5060577;28;20510;-84
2023/08/20 10:30:26;;;;;;;7.47;1.52;;;23.50;99.90;;;;;;5103134;28;20067;-84
2023/08/20 10:32:51;;;;;;;7.88;1.90;;;23.60;99.90;;;;;;5074551;28;20041;-83
2023/08/20 10:35:46;;;;;;;8.18;1.50;;;23.70;99.90;;;;;;5076769;28;20067;-83
2023/08/20 10:38:16;;;;;;;9.38;1.65;;;23.80;99.90;;;;;;5074257;28;20063;-85
2023/08/20 10:40:58;;;;;;;8.45;1.40;;;23.80;99.90;;;;;;5070698;28;20049;-83
2023/08/20 10:43:37;;;;;;;6.85;1.33;;;23.80;99.90;;;;;;5074265;28;20036;-84
2023/08/20 10:46:15;;;;;;;6.10;1.60;;;23.80;99.90;;;;;;5073541;28;20052;-83
2023/08/20 10:48:42;;;;;;;6.53;1.45;;;23.80;99.90;;;;;;5053899;28;20045;-83
2023/08/20 10:51:08;;;;;;;6.95;1.35;;;23.80;99.90;;;;;;5059982;28;20029;-84
2023/08/20 10:53:34;;;;;;;6.93;1.30;;;24.00;99.90;;;;;;5054639;28;20495;-84
2023/08/20 10:56:13;;;;;;;7.57;1.30;;;24.00;99.90;;;;;;5045070;28;20491;-84
2023/08/20 10:58:43;;;;;;;5.90;1.10;;;24.10;99.90;;;;;;5059973;28;20033;-83
2023/08/20 11:01:22;;;;;;;6.93;1.63;;;24.30;99.90;;;;;;5066654;28;20122;-84
2023/08/20 11:03:50;;;;;;;5.40;1.25;;;24.40;99.90;;;;;;5044867;28;20071;-84
2023/08/20 11:06:17;;;;;;;5.75;1.08;;;24.50;99.90;;;;;;5062538;28;20074;-83
2023/08/20 11:08:43;;;;;;;6.28;1.27;;;24.60;99.90;;;;;;5059823;28;20413;-84
2023/08/20 11:11:10;;;;;;;7.47;1.40;;;24.60;99.90;;;;;;5085058;28;20044;-84
2023/08/20 11:13:35;;;;;;;6.85;1.40;;;24.70;99.90;;;;;;5055127;28;20040;-84
2023/08/20 11:16:06;;;;;;;8.88;1.50;;;24.80;99.90;;;;;;5063356;28;20048;-83
2023/08/20 11:18:35;;;;;;;5.25;1.30;;;24.90;99.90;;;;;;5059923;28;20036;-83
2023/08/20 11:21:01;;;;;;;8.60;1.50;;;25.00;99.90;;;;;;5064872;28;20051;-83
2023/08/20 11:23:28;;;;;;;3.95;1.02;;;25.10;99.90;;;;;;5060673;28;20037;-83
2023/08/20 11:25:53;;;;;;;5.03;0.90;;;25.10;99.90;;;;;;5057240;28;20407;-83
2023/08/20 11:28:20;;;;;;;5.85;1.10;;;25.10;99.90;;;;;;5058312;28;20040;-84
2023/08/20 11:30:46;;;;;;;7.25;1.17;;;25.20;99.90;;;;;;5057099;28;20029;-83
2023/08/20 11:33:12;;;;;;;7.20;1.40;;;25.20;99.90;;;;;;5081657;28;20050;-84
2023/08/20 11:35:38;;;;;;;10.55;1.30;;;25.20;99.90;;;;;;5050223;28;20041;-84
2023/08/20 11:38:04;;;;;;;6.65;1.63;;;25.30;99.90;;;;;;5059506;28;20037;-84
2023/08/20 11:40:30;;;;;;;4.82;0.95;;;25.30;99.90;;;;;;5054298;28;20037;-83
2023/08/20 11:42:56;;;;;;;6.40;1.05;;;25.40;99.90;;;;;;5057904;28;20044;-84
2023/08/20 11:45:21;;;;;;;5.75;1.23;;;25.50;99.90;;;;;;5061627;28;20064;-84
2023/08/20 11:47:47;;;;;;;7.28;1.05;;;25.60;99.90;;;;;;5043746;28;20048;-84
2023/08/20 11:50:13;;;;;;;8.43;1.00;;;25.50;99.90;;;;;;5057877;28;20056;-84
2023/08/20 11:52:39;;;;;;;7.93;1.10;;;25.50;99.90;;;;;;5056669;28;20049;-84
2023/08/20 11:55:06;;;;;;;9.27;1.00;;;25.60;99.90;;;;;;5059859;28;20558;-83
2023/08/20 11:57:32;;;;;;;7.97;1.00;;;25.70;99.90;;;;;;5054780;28;20059;-84
2023/08/20 12:00:15;;;;;;;8.20;1.13;;;25.70;99.90;;;;;;5055276;28;20040;-84
2023/08/20 12:02:44;;;;;;;4.85;0.82;;;25.80;99.90;;;;;;5071511;28;20076;-83
2023/08/20 12:05:09;;;;;;;4.90;1.00;;;25.90;99.90;;;;;;5050118;28;20120;-84
2023/08/20 12:07:35;;;;;;;5.28;0.80;;;25.90;99.90;;;;;;5059713;28;21686;-84
2023/08/20 12:10:21;;;;;;;5.00;1.00;;;26.00;99.90;;;;;;5056358;28;20045;-84
2023/08/20 12:12:51;;;;;;;8.70;1.17;;;26.10;99.90;;;;;;5057137;28;20127;-83
2023/08/20 12:15:18;;;;;;;4.60;0.82;;;26.30;99.90;;;;;;5057398;28;20487;-84
2023/08/20 12:17:55;;;;;;;5.32;0.82;;;26.30;99.90;;;;;;5082859;28;20041;-83
2023/08/20 12:20:20;;;;;;;6.57;1.15;;;26.40;99.90;;;;;;5053203;28;20033;-84
2023/08/20 12:22:46;;;;;;;3.83;0.82;;;26.40;99.90;;;;;;5063484;28;20041;-84
2023/08/20 12:25:12;;;;;;;3.15;0.60;;;26.30;99.90;;;;;;5049332;28;20116;-83
2023/08/20 12:27:37;;;;;;;3.38;0.85;;;26.20;99.90;;;;;;5042406;28;20044;-84
2023/08/20 12:30:03;;;;;;;4.57;0.85;;;26.20;99.90;;;;;;5054796;28;20416;-83
2023/08/20 12:32:29;;;;;;;5.10;1.00;;;26.30;99.90;;;;;;5057646;28;20036;-84
2023/08/20 12:34:54;;;;;;;5.03;0.93;;;26.30;99.90;;;;;;5056820;28;20041;-83
2023/08/20 12:37:20;;;;;;;3.28;0.60;;;26.40;99.90;;;;;;5065106;28;20044;-84
2023/08/20 12:39:46;;;;;;;3.25;0.60;;;26.50;99.90;;;;;;5061976;28;20040;-84